Time;durP1;ratioP1;P1;durP2;ratioP2;P2;SDS_P1;SDS_P2;PMS_P1;PMS_P2;Temp;Humidity;BMP_temperature;BMP_pressure;BME280_temperature;BME280_humidity;BME280_pressure;Samples;Min_cycle;Max_cycle;Signal;HPM_P1;HPM_P2
2021/07/03 00:01:52;;;;;;;23.30;11.77;;;14.70;1.00;;;;;;5055668;28;20410;-75
2021/07/03 00:04:34;;;;;;;23.00;11.10;;;14.70;1.00;;;;;;5055431;28;20393;-75
2021/07/03 00:07:00;;;;;;;21.97;10.70;;;14.70;1.00;;;;;;5055512;28;20889;-75
2021/07/03 00:09:28;;;;;;;26.73;11.40;;;14.70;1.00;;;;;;5055283;28;20434;-75
2021/07/03 00:11:54;;;;;;;30.03;12.47;;;14.60;1.00;;;;;;5055250;28;20630;-75
2021/07/03 00:14:20;;;;;;;24.23;10.90;;;14.60;1.00;;;;;;5055307;28;20533;-75
2021/07/03 00:16:46;;;;;;;20.37;11.57;;;14.60;1.00;;;;;;5055061;28;20224;-75
2021/07/03 00:19:11;;;;;;;24.67;12.20;;;14.60;1.00;;;;;;5054135;28;20184;-75
2021/07/03 00:21:37;;;;;;;23.93;11.70;;;14.50;1.00;;;;;;5053275;28;20168;-76
2021/07/03 00:24:03;;;;;;;22.53;11.60;;;14.50;1.00;;;;;;5054746;28;20175;-75
2021/07/03 00:26:40;;;;;;;25.77;12.30;;;14.60;1.00;;;;;;5057647;28;20960;-75
2021/07/03 00:29:06;;;;;;;21.63;11.80;;;;;;;;;;5056506;28;20991;-75
2021/07/03 00:31:32;;;;;;;26.53;12.20;;;14.50;1.00;;;;;;5055806;28;20919;-75
2021/07/03 00:34:05;;;;;;;26.83;12.67;;;14.50;1.00;;;;;;5054739;28;20390;-75
2021/07/03 00:36:30;;;;;;;24.47;12.30;;;14.50;1.00;;;;;;5054933;28;20623;-75
2021/07/03 00:38:56;;;;;;;22.43;12.13;;;14.40;1.00;;;;;;5054791;28;20466;-75
2021/07/03 00:41:22;;;;;;;27.83;12.00;;;14.40;1.00;;;;;;5054812;28;20167;-75
2021/07/03 00:43:48;;;;;;;24.20;12.60;;;14.40;1.00;;;;;;5058409;28;20183;-75
2021/07/03 00:46:13;;;;;;;31.20;13.47;;;14.30;1.00;;;;;;5074726;28;20449;-75
2021/07/03 00:48:39;;;;;;;24.73;11.43;;;14.30;1.00;;;;;;5060680;28;20246;-75
2021/07/03 00:51:05;;;;;;;21.03;11.23;;;14.30;1.00;;;;;;5074722;28;20195;-74
2021/07/03 00:53:32;;;;;;;29.67;13.53;;;14.30;1.00;;;;;;5074588;28;20395;-75
2021/07/03 00:55:58;;;;;;;25.40;12.70;;;14.30;1.00;;;;;;5056790;28;20933;-75
2021/07/03 00:58:24;;;;;;;26.63;12.80;;;14.20;1.00;;;;;;5054663;28;20754;-75
2021/07/03 01:00:52;;;;;;;27.20;12.67;;;14.30;1.00;;;;;;5054492;28;20460;-75
2021/07/03 01:03:18;;;;;;;23.73;12.40;;;14.20;1.00;;;;;;5054479;28;20417;-75
2021/07/03 01:05:44;;;;;;;27.67;13.80;;;14.20;1.00;;;;;;5054110;28;20410;-75
2021/07/03 01:08:10;;;;;;;38.07;12.53;;;14.20;1.00;;;;;;5057279;28;20183;-75
2021/07/03 01:10:36;;;;;;;25.50;12.90;;;14.20;1.00;;;;;;5053859;28;20209;-75
2021/07/03 01:13:02;;;;;;;20.60;11.03;;;14.20;1.00;;;;;;5054408;28;20489;-75
2021/07/03 01:15:28;;;;;;;25.23;13.10;;;14.20;1.00;;;;;;5068237;28;20428;-75
2021/07/03 01:18:04;;;;;;;28.97;12.30;;;14.20;1.00;;;;;;5054226;28;20440;-75
2021/07/03 01:20:30;;;;;;;28.63;12.43;;;;;;;;;;5053774;28;20202;-75
2021/07/03 01:22:58;;;;;;;20.90;11.87;;;14.10;1.00;;;;;;5053751;28;20365;-75
2021/07/03 01:25:24;;;;;;;25.83;13.50;;;14.10;1.00;;;;;;5067126;28;20419;-75
2021/07/03 01:27:59;;;;;;;30.20;12.87;;;14.10;1.00;;;;;;5058614;28;20473;-75
2021/07/03 01:30:26;;;;;;;24.00;12.20;;;14.10;1.00;;;;;;5053878;28;20398;-75
2021/07/03 01:32:52;;;;;;;33.17;13.73;;;14.00;1.00;;;;;;5054855;28;20425;-75
2021/07/03 01:35:18;;;;;;;30.30;13.30;;;14.00;1.00;;;;;;5060704;28;20397;-75
2021/07/03 01:37:44;;;;;;;31.73;13.47;;;14.00;1.00;;;;;;5055989;28;20454;-75
2021/07/03 01:40:34;;;;;;;23.87;12.53;;;14.00;1.00;;;;;;5053786;28;20237;-75
2021/07/03 01:43:29;;;;;;;22.60;12.70;;;14.00;1.00;;;;;;5059269;28;20888;-75
2021/07/03 01:46:22;;;;;;;27.40;12.80;;;13.90;1.00;;;;;;5056025;28;20885;-75
2021/07/03 01:48:53;;;;;;;27.40;12.83;;;13.90;1.00;;;;;;5068374;28;20421;-75
2021/07/03 01:51:18;;;;;;;25.80;11.77;;;13.90;1.00;;;;;;5073273;28;20705;-75
2021/07/03 01:53:52;;;;;;;32.40;12.10;;;13.90;1.00;;;;;;5072466;28;20447;-75
2021/07/03 01:56:18;;;;;;;22.97;12.70;;;13.90;1.00;;;;;;5068446;28;20176;-75
2021/07/03 01:58:58;;;;;;;35.20;13.03;;;13.80;1.00;;;;;;5053241;28;21024;-75
2021/07/03 02:01:29;;;;;;;22.07;12.80;;;13.90;1.00;;;;;;5053592;28;20166;-75
2021/07/03 02:03:54;;;;;;;23.70;13.00;;;13.80;1.00;;;;;;5053852;28;20373;-74
2021/07/03 02:06:20;;;;;;;26.07;13.77;;;13.80;1.00;;;;;;5060694;28;20421;-75
2021/07/03 02:08:46;;;;;;;24.37;12.90;;;;;;;;;;5053526;28;20164;-75
2021/07/03 02:11:28;;;;;;;22.23;11.90;;;13.80;1.00;;;;;;5061652;28;20519;-75
2021/07/03 02:13:54;;;;;;;27.73;12.77;;;13.80;1.00;;;;;;5066662;28;20525;-75
2021/07/03 02:16:34;;;;;;;36.37;14.30;;;13.80;1.00;;;;;;5053176;28;20529;-75
2021/07/03 02:19:01;;;;;;;27.00;12.90;;;13.80;1.00;;;;;;5071782;28;20203;-75
2021/07/03 02:21:29;;;;;;;20.20;11.10;;;13.70;1.00;;;;;;5063348;28;20908;-75
2021/07/03 02:24:04;;;;;;;29.20;13.50;;;13.70;1.00;;;;;;5053328;28;20372;-75
2021/07/03 02:26:34;;;;;;;28.03;12.30;;;13.70;1.00;;;;;;5053099;28;20871;-75
2021/07/03 02:29:16;;;;;;;30.60;13.53;;;13.70;1.00;;;;;;5051766;28;20440;-75
2021/07/03 02:31:42;;;;;;;26.87;13.73;;;13.70;1.00;;;;;;5060130;28;20805;-75
2021/07/03 02:34:07;;;;;;;25.50;12.57;;;13.70;1.00;;;;;;5071971;28;20405;-76
2021/07/03 02:36:52;;;;;;;22.80;13.27;;;13.70;1.00;;;;;;5057615;28;20508;-75
2021/07/03 02:39:18;;;;;;;26.10;13.27;;;13.70;1.00;;;;;;5053008;28;20262;-74
2021/07/03 02:41:44;;;;;;;22.27;12.50;;;;;;;;;;5064524;28;20417;-75
2021/07/03 02:44:22;;;;;;;26.83;14.27;;;13.70;1.00;;;;;;5066263;28;20728;-76
2021/07/03 02:46:48;;;;;;;26.47;13.30;;;13.70;1.00;;;;;;5063890;28;20742;-75
2021/07/03 02:49:46;;;;;;;26.50;13.03;;;13.70;1.00;;;;;;5077266;28;20407;-75
2021/07/03 02:52:22;;;;;;;23.43;13.17;;;13.80;1.00;;;;;;5075029;28;20173;-75
2021/07/03 02:55:05;;;;;;;24.13;12.60;;;13.80;1.00;;;;;;5065214;28;20415;-75
2021/07/03 02:57:52;;;;;;;21.30;11.97;;;13.80;1.00;;;;;;5063877;28;20431;-75
2021/07/03 03:00:46;;;;;;;22.53;11.47;;;13.90;1.00;;;;;;5076877;28;20372;-75
2021/07/03 03:03:30;;;;;;;25.70;12.47;;;13.90;1.00;;;;;;5073770;28;20421;-75
2021/07/03 03:05:56;;;;;;;28.33;12.70;;;13.90;1.00;;;;;;5056823;28;20402;-75
2021/07/03 03:08:28;;;;;;;25.50;13.67;;;13.90;1.00;;;;;;5070705;28;21081;-75
2021/07/03 03:10:54;;;;;;;23.30;12.67;;;13.90;1.00;;;;;;5062888;28;20182;-74
2021/07/03 03:13:35;;;;;;;21.43;11.83;;;13.90;1.00;;;;;;5056861;28;20373;-75
2021/07/03 03:16:10;;;;;;;20.33;12.20;;;13.90;1.00;;;;;;5070743;28;20178;-75
2021/07/03 03:19:28;;;;;;;25.83;12.73;;;13.90;1.00;;;;;;5076014;28;20451;-76
2021/07/03 03:21:53;;;;;;;24.30;11.60;;;13.90;1.00;;;;;;5076292;28;20360;-75
2021/07/03 03:24:19;;;;;;;21.73;11.90;;;13.80;1.00;;;;;;5074345;28;20391;-75
2021/07/03 03:26:45;;;;;;;39.53;11.73;;;13.80;1.00;;;;;;5055888;28;20160;-75
2021/07/03 03:29:11;;;;;;;24.03;13.30;;;;;;;;;;5062051;28;20194;-75
2021/07/03 03:31:40;;;;;;;21.87;11.33;;;13.90;1.00;;;;;;5071800;28;20174;-75
2021/07/03 03:34:10;;;;;;;25.27;12.33;;;13.90;1.00;;;;;;5056222;28;20420;-75
2021/07/03 03:36:36;;;;;;;23.67;12.17;;;13.90;1.00;;;;;;5075192;28;20409;-75
2021/07/03 03:39:03;;;;;;;26.60;12.33;;;13.90;1.00;;;;;;5060931;28;20438;-75
2021/07/03 03:41:34;;;;;;;27.27;12.27;;;13.90;1.00;;;;;;5056167;28;20164;-75
2021/07/03 03:44:00;;;;;;;22.90;12.20;;;;;;;;;;5068398;28;20388;-75
2021/07/03 03:46:28;;;;;;;23.03;11.70;;;14.10;1.00;;;;;;5075917;28;20471;-75
2021/07/03 03:48:54;;;;;;;25.53;13.03;;;14.10;1.00;;;;;;5075440;28;20398;-75
2021/07/03 03:51:20;;;;;;;28.57;11.20;;;;;;;;;;5076421;28;20433;-75
2021/07/03 03:53:46;;;;;;;31.50;12.80;;;14.20;1.00;;;;;;5065036;28;20199;-75
2021/07/03 03:56:16;;;;;;;29.33;12.87;;;14.30;1.00;;;;;;5074080;28;20916;-75
2021/07/03 03:58:42;;;;;;;22.83;12.13;;;14.40;1.00;;;;;;5065628;28;20780;-75
2021/07/03 04:01:10;;;;;;;27.30;13.20;;;14.40;1.00;;;;;;5057510;28;20479;-76
2021/07/03 04:03:36;;;;;;;29.23;12.43;;;14.60;1.00;;;;;;5055577;28;20195;-75
2021/07/03 04:06:02;;;;;;;30.30;13.83;;;14.70;1.00;;;;;;5055899;28;21092;-75
2021/07/03 04:08:29;;;;;;;25.07;12.67;;;14.70;1.00;;;;;;5055687;28;20263;-75
2021/07/03 04:10:58;;;;;;;19.63;11.30;;;14.90;1.00;;;;;;5054208;28;20927;-77
2021/07/03 04:13:40;;;;;;;26.53;11.80;;;15.10;1.00;;;;;;5055113;28;20396;-77
2021/07/03 04:16:58;;;;;;;22.20;12.13;;;15.20;1.00;;;;;;5055266;28;20380;-77
2021/07/03 04:19:46;;;;;;;31.07;13.03;;;15.50;1.00;;;;;;5055131;28;20429;-77
2021/07/03 04:25:33;;;;;;;21.20;11.83;;;15.80;1.00;;;;;;5074755;28;20413;-78
2021/07/03 04:28:00;;;;;;;21.27;12.13;;;16.00;1.00;;;;;;5073332;28;20938;-78
2021/07/03 04:37:10;;;;;;;27.90;11.00;;;16.20;1.00;;;;;;5054337;28;20464;-81
2021/07/03 04:42:58;;;;;;;25.57;11.60;;;16.30;99.90;;;;;;5057702;28;20417;-81
2021/07/03 04:48:45;;;;;;;21.97;11.80;;;16.20;99.90;;;;;;5071692;28;20389;-81
2021/07/03 04:57:57;;;;;;;18.70;10.90;;;16.20;99.90;;;;;;5074215;28;20459;-75
2021/07/03 05:00:46;;;;;;;19.30;10.73;;;16.10;99.90;;;;;;5068640;28;20441;-75
2021/07/03 05:09:56;;;;;;;18.43;10.83;;;16.10;99.90;;;;;;5054343;28;20410;-75
2021/07/03 05:12:46;;;;;;;21.00;10.80;;;16.10;99.90;;;;;;5054208;28;20425;-75
2021/07/03 05:18:33;;;;;;;21.30;11.70;;;;;;;;;;5071466;28;20451;-75
2021/07/03 05:24:28;;;;;;;26.83;11.70;;;16.00;99.90;;;;;;5073886;28;20405;-75
2021/07/03 05:26:58;;;;;;;22.13;11.20;;;16.10;99.90;;;;;;5059716;28;20900;-75
2021/07/03 05:29:24;;;;;;;21.50;11.93;;;16.10;99.90;;;;;;5073787;28;20404;-75
2021/07/03 05:31:51;;;;;;;26.47;12.47;;;16.20;1.00;;;;;;5054965;28;20424;-75
2021/07/03 05:34:22;;;;;;;23.97;12.03;;;16.30;1.00;;;;;;5053866;28;20263;-75
2021/07/03 05:36:52;;;;;;;28.27;12.10;;;16.30;1.00;;;;;;5053740;28;20781;-75
2021/07/03 05:39:18;;;;;;;19.03;12.43;;;16.40;1.00;;;;;;5053456;28;20417;-75
2021/07/03 05:41:43;;;;;;;23.10;11.93;;;16.40;1.00;;;;;;5053668;28;20785;-82
2021/07/03 05:44:10;;;;;;;25.40;11.73;;;;;;;;;;5053596;28;20516;-81
2021/07/03 05:46:36;;;;;;;19.00;11.27;;;16.50;99.90;;;;;;5053636;28;20191;-82
2021/07/03 05:49:02;;;;;;;25.43;11.87;;;16.70;99.90;;;;;;5062740;28;20421;-82
2021/07/03 05:51:36;;;;;;;19.80;10.30;;;16.70;99.90;;;;;;5072234;28;20400;-81
2021/07/03 05:54:34;;;;;;;25.67;12.13;;;16.80;99.90;;;;;;5072153;28;20406;-79
2021/07/03 06:00:21;;;;;;;17.70;11.20;;;17.00;99.90;;;;;;5073245;28;20395;-78
2021/07/03 06:02:58;;;;;;;17.97;10.60;;;17.20;99.90;;;;;;5073228;28;20753;-78
2021/07/03 06:05:58;;;;;;;21.23;11.47;;;17.20;99.90;;;;;;5063223;28;20163;-79
2021/07/03 06:08:24;;;;;;;23.43;10.90;;;17.40;99.90;;;;;;5063950;28;20410;-75
2021/07/03 06:10:52;;;;;;;19.67;11.57;;;17.40;99.90;;;;;;5061649;28;20400;-75
2021/07/03 06:13:18;;;;;;;20.20;10.20;;;17.50;99.90;;;;;;5062809;28;20195;-75
2021/07/03 06:15:44;;;;;;;20.40;11.27;;;17.60;99.90;;;;;;5058292;28;20819;-75
2021/07/03 06:18:10;;;;;;;18.93;10.63;;;17.70;99.90;;;;;;5052552;28;20196;-74
2021/07/03 06:20:35;;;;;;;20.23;10.40;;;17.70;99.90;;;;;;5052982;28;20169;-75
2021/07/03 06:23:04;;;;;;;21.40;10.90;;;17.80;99.90;;;;;;5053357;28;20224;-75
2021/07/03 06:25:30;;;;;;;19.90;10.70;;;17.90;99.90;;;;;;5053371;28;20485;-76
2021/07/03 06:27:56;;;;;;;18.43;10.70;;;17.90;99.90;;;;;;5052979;28;20912;-75
2021/07/03 06:30:21;;;;;;;17.43;9.67;;;18.00;99.90;;;;;;5052175;28;20469;-75
2021/07/03 06:32:47;;;;;;;22.67;11.00;;;18.20;99.90;;;;;;5051391;28;20167;-75
2021/07/03 06:35:13;;;;;;;19.60;9.50;;;18.30;99.90;;;;;;5052124;28;20514;-75
2021/07/03 06:37:38;;;;;;;17.67;9.97;;;18.40;99.90;;;;;;5052215;28;20235;-75
2021/07/03 06:40:05;;;;;;;18.50;10.20;;;18.50;99.90;;;;;;5052368;28;20181;-76
2021/07/03 06:42:34;;;;;;;18.77;10.70;;;18.60;99.90;;;;;;5052815;28;20247;-77
2021/07/03 06:45:28;;;;;;;21.40;11.27;;;18.70;99.90;;;;;;5052692;28;20424;-77
2021/07/03 06:51:16;;;;;;;16.07;9.20;;;19.00;99.90;;;;;;5053227;28;20419;-78
2021/07/03 06:57:05;;;;;;;18.03;9.53;;;19.20;99.90;;;;;;5052495;28;20252;-79
2021/07/03 07:00:05;;;;;;;21.10;10.60;;;19.30;99.90;;;;;;5052504;28;20448;-79
2021/07/03 07:03:04;;;;;;;13.23;9.00;;;19.40;99.90;;;;;;5052768;28;20397;-79
2021/07/03 07:05:46;;;;;;;21.77;10.80;;;19.60;99.90;;;;;;5060023;28;20503;-79
2021/07/03 07:11:34;;;;;;;15.23;10.40;;;19.90;99.90;;;;;;5070141;28;20419;-78
2021/07/03 07:14:04;;;;;;;16.70;10.63;;;20.00;99.90;;;;;;5071909;28;20416;-77
2021/07/03 07:16:46;;;;;;;19.57;9.57;;;20.10;99.90;;;;;;5059035;28;20417;-77
2021/07/03 07:22:34;;;;;;;15.93;10.10;;;20.40;99.90;;;;;;5072372;28;20368;-77
2021/07/03 07:25:04;;;;;;;14.00;9.67;;;20.50;99.90;;;;;;5061857;28;20438;-78
2021/07/03 07:28:04;;;;;;;18.63;10.87;;;20.60;99.90;;;;;;5052497;28;20825;-77
2021/07/03 07:30:46;;;;;;;18.33;9.50;;;20.70;99.90;;;;;;5053194;28;20505;-77
2021/07/03 07:33:22;;;;;;;14.57;9.40;;;20.90;99.90;;;;;;5056035;28;20392;-77
2021/07/03 07:39:40;;;;;;;18.27;10.17;;;21.20;99.90;;;;;;5064990;28;20564;-81
2021/07/03 07:45:34;;;;;;;18.37;9.97;;;21.50;99.90;;;;;;5068027;28;20416;-81
2021/07/03 07:48:34;;;;;;;21.30;11.00;;;21.60;99.90;;;;;;5075483;28;20398;-81
2021/07/03 07:51:52;;;;;;;14.80;10.20;;;21.80;99.90;;;;;;5075645;28;21216;-80
2021/07/03 07:55:04;;;;;;;17.37;9.90;;;21.80;99.90;;;;;;5059182;28;20436;-81
2021/07/03 08:01:04;;;;;;;17.30;9.77;;;22.10;99.90;;;;;;5075100;28;20457;-81
2021/07/03 08:04:04;;;;;;;19.43;9.80;;;22.30;99.90;;;;;;5064002;28;20432;-81
2021/07/03 08:09:52;;;;;;;16.33;10.60;;;22.40;99.90;;;;;;5055144;28;20403;-81
2021/07/03 08:13:04;;;;;;;18.53;10.10;;;22.30;99.90;;;;;;5054885;28;20396;-81
2021/07/03 08:16:04;;;;;;;15.10;9.43;;;22.40;99.90;;;;;;5060137;28;20423;-81
2021/07/03 08:18:46;;;;;;;19.23;10.20;;;22.50;99.90;;;;;;5056069;28;20487;-81
2021/07/03 08:25:04;;;;;;;17.20;10.23;;;22.60;99.90;;;;;;5060673;28;20404;-78
2021/07/03 08:28:04;;;;;;;22.33;11.03;;;22.70;99.90;;;;;;5074815;28;20392;-80
2021/07/03 08:31:04;;;;;;;17.13;9.70;;;22.70;99.90;;;;;;5074595;28;20416;-80
2021/07/03 08:41:04;;;;;;;12.10;9.30;;;23.00;99.90;;;;;;5072421;28;20832;-81
2021/07/03 08:44:04;;;;;;;14.23;9.60;;;23.20;99.90;;;;;;5060532;28;20414;-80
2021/07/03 08:47:05;;;;;;;18.70;10.40;;;23.20;99.90;;;;;;5053256;28;20946;-80
2021/07/03 08:49:37;;;;;;;17.60;8.97;;;23.20;99.90;;;;;;5054371;28;20483;-80
2021/07/03 08:52:10;;;;;;;24.53;9.40;;;23.30;99.90;;;;;;5053447;28;20472;-81
2021/07/03 08:58:34;;;;;;;18.97;9.50;;;23.40;99.90;;;;;;5054009;28;20820;-81
2021/07/03 09:01:45;;;;;;;26.97;9.93;;;23.40;99.90;;;;;;5053826;28;20483;-79
2021/07/03 09:04:40;;;;;;;13.90;9.30;;;23.60;99.90;;;;;;5057868;28;20773;-80
2021/07/03 09:07:35;;;;;;;23.60;9.30;;;23.90;99.90;;;;;;5073853;28;20383;-80
2021/07/03 09:13:22;;;;;;;12.70;8.13;;;24.00;99.90;;;;;;5053919;28;20452;-82
2021/07/03 09:16:05;;;;;;;15.63;8.50;;;24.10;99.90;;;;;;5056151;28;20534;-83
2021/07/03 09:25:35;;;;;;;18.13;9.10;;;24.60;99.90;;;;;;5073814;28;20456;-82
2021/07/03 09:28:39;;;;;;;10.70;7.93;;;24.60;99.90;;;;;;5055882;28;20449;-82
2021/07/03 09:31:06;;;;;;;11.40;7.80;;;24.60;99.90;;;;;;5053870;28;20505;-82
2021/07/03 09:34:12;;;;;;;12.83;7.93;;;24.60;99.90;;;;;;5053996;28;20388;-82
2021/07/03 09:36:38;;;;;;;28.50;14.07;;;24.70;99.90;;;;;;5059961;28;20421;-82
2021/07/03 09:39:04;;;;;;;21.43;10.00;;;24.80;99.90;;;;;;5058420;28;20525;-79
2021/07/03 09:41:37;;;;;;;13.70;8.60;;;24.90;99.90;;;;;;5066030;28;20223;-79
2021/07/03 09:44:34;;;;;;;12.20;8.10;;;25.10;99.90;;;;;;5053561;28;20484;-79
2021/07/03 09:47:34;;;;;;;13.30;8.20;;;25.30;99.90;;;;;;5053552;28;20382;-76
2021/07/03 09:50:05;;;;;;;10.53;6.50;;;;;;;;;;5053351;28;20801;-76
2021/07/03 09:52:31;;;;;;;25.00;10.60;;;;;;;;;;5067978;28;20411;-75
2021/07/03 09:54:57;;;;;;;78.10;22.63;;;;;;;;;;5072757;28;20420;-75
2021/07/03 09:57:24;;;;;;;51.27;15.93;;;25.90;99.90;;;;;;5072651;28;20403;-76
2021/07/03 09:59:51;;;;;;;17.73;7.57;;;26.00;99.90;;;;;;5053346;28;20440;-76
2021/07/03 10:02:17;;;;;;;19.77;8.57;;;;;;;;;;5053284;28;20416;-77
2021/07/03 10:04:47;;;;;;;19.17;7.57;;;;;;;;;;5053216;28;20428;-76
2021/07/03 10:07:21;;;;;;;13.57;6.80;;;26.30;99.90;;;;;;5053873;28;20420;-77
2021/07/03 10:09:47;;;;;;;14.10;6.77;;;;;;;;;;5053731;28;20543;-76
2021/07/03 10:12:35;;;;;;;33.07;7.63;;;26.00;99.90;;;;;;5052588;28;20427;-82
2021/07/03 10:15:05;;;;;;;10.93;6.30;;;25.80;99.90;;;;;;5053272;28;20452;-83
2021/07/03 10:18:04;;;;;;;10.40;6.47;;;25.80;99.90;;;;;;5052450;28;20442;-82
2021/07/03 10:20:58;;;;;;;33.07;7.60;;;;;;;;;;5053028;28;20793;-82
2021/07/03 10:23:52;;;;;;;28.63;7.80;;;25.80;99.90;;;;;;5053421;28;20878;-83
2021/07/03 10:26:39;;;;;;;19.40;5.93;;;26.00;99.90;;;;;;5052660;28;20417;-82
2021/07/03 10:29:22;;;;;;;17.33;5.90;;;26.10;99.90;;;;;;5071602;28;20440;-82
2021/07/03 10:32:34;;;;;;;19.57;6.60;;;25.80;99.90;;;;;;5064540;28;20417;-81
2021/07/03 10:35:34;;;;;;;12.60;6.23;;;;;;;;;;5053196;28;20398;-83
2021/07/03 10:38:52;;;;;;;26.07;7.30;;;26.40;99.90;;;;;;5051292;28;20460;-83
2021/07/03 10:41:37;;;;;;;25.17;6.13;;;26.50;99.90;;;;;;5052427;28;20416;-78
2021/07/03 10:44:38;;;;;;;9.80;4.70;;;26.70;99.90;;;;;;5052476;28;20451;-78
2021/07/03 10:47:35;;;;;;;7.87;4.73;;;26.60;99.90;;;;;;5052910;28;20401;-79
2021/07/03 10:50:29;;;;;;;21.73;6.50;;;26.80;99.90;;;;;;5052428;28;20398;-78
2021/07/03 10:53:05;;;;;;;37.93;7.33;;;;;;;;;;5052678;28;20396;-79
2021/07/03 10:55:35;;;;;;;18.67;6.00;;;26.90;99.90;;;;;;5065864;28;20931;-78
2021/07/03 11:01:18;;;;;;;15.40;5.70;;;;;;;;;;5056360;28;20430;-78
2021/07/03 11:03:53;;;;;;;12.27;6.10;;;;;;;;;;5052565;28;20416;-78
2021/07/03 11:06:42;;;;;;;6.37;4.90;;;27.60;99.90;;;;;;5055502;28;20438;-78
2021/07/03 11:09:24;;;;;;;17.53;5.60;;;27.70;99.90;;;;;;5066267;28;20890;-79
2021/07/03 11:11:55;;;;;;;28.97;7.23;;;;;;;;;;5056481;28;20414;-78
2021/07/03 11:14:35;;;;;;;33.10;7.03;;;;;;;;;;5056264;28;20394;-78
2021/07/03 11:17:05;;;;;;;8.23;5.40;;;;;;;;;;5062073;28;20410;-78
2021/07/03 11:19:35;;;;;;;7.43;4.93;;;;;;;;;;5075838;28;20962;-78
2021/07/03 11:22:23;;;;;;;5.20;4.40;;;27.80;99.90;;;;;;5056069;28;20400;-78
2021/07/03 11:24:55;;;;;;;24.40;6.10;;;27.80;99.90;;;;;;5055825;28;20391;-78
2021/07/03 11:27:33;;;;;;;10.27;5.93;;;27.80;99.90;;;;;;5056235;28;20889;-78
2021/07/03 11:30:00;;;;;;;23.63;6.97;;;;;;;;;;5055855;28;20441;-78
2021/07/03 11:32:29;;;;;;;9.10;5.47;;;;;;;;;;5055494;28;20429;-78
2021/07/03 11:34:55;;;;;;;9.37;5.10;;;;;;;;;;5055243;28;20475;-78
2021/07/03 11:37:30;;;;;;;13.10;5.07;;;;;;;;;;5056064;28;20397;-78
2021/07/03 11:40:23;;;;;;;26.37;6.97;;;28.20;99.90;;;;;;5058428;28;20405;-79
2021/07/03 11:43:05;;;;;;;5.07;4.60;;;;;;;;;;5055745;28;20460;-78
2021/07/03 11:45:37;;;;;;;15.17;6.67;;;28.50;99.90;;;;;;5056008;28;20412;-78
2021/07/03 11:48:04;;;;;;;8.80;5.23;;;28.60;99.90;;;;;;5055579;28;20396;-79
2021/07/03 11:50:40;;;;;;;15.20;4.93;;;28.70;99.90;;;;;;5055553;28;20417;-78
2021/07/03 11:53:24;;;;;;;9.47;4.77;;;28.50;99.90;;;;;;5055598;28;20420;-78
2021/07/03 11:56:23;;;;;;;8.77;4.57;;;;;;;;;;5056236;28;20465;-83
2021/07/03 11:59:05;;;;;;;8.00;3.77;;;;;;;;;;5072850;28;20463;-83
2021/07/03 12:02:04;;;;;;;18.37;5.60;;;;;;;;;;5060461;28;20412;-82
2021/07/03 12:05:05;;;;;;;33.27;7.40;;;28.40;99.90;;;;;;5055071;28;20875;-82
2021/07/03 12:08:03;;;;;;;6.40;4.77;;;28.60;99.90;;;;;;5063240;28;20504;-82
2021/07/03 12:10:52;;;;;;;16.97;4.40;;;;;;;;;;5061348;28;20428;-80
2021/07/03 12:13:35;;;;;;;5.00;3.93;;;;;;;;;;5075535;28;20476;-79
2021/07/03 12:16:10;;;;;;;9.07;4.57;;;29.10;99.90;;;;;;5074040;28;20428;-78
2021/07/03 12:19:04;;;;;;;7.20;4.40;;;29.00;99.90;;;;;;5074539;28;20446;-78
2021/07/03 12:21:35;;;;;;;19.67;5.33;;;;;;;;;;5074560;28;20409;-78
2021/07/03 12:24:07;;;;;;;24.00;5.40;;;29.30;99.90;;;;;;5075345;28;20528;-78
2021/07/03 12:26:37;;;;;;;9.43;4.43;;;29.40;99.90;;;;;;5075227;28;20401;-78
2021/07/03 12:29:14;;;;;;;11.37;4.03;;;29.50;99.90;;;;;;5074824;28;20784;-78
2021/07/03 12:31:53;;;;;;;22.23;5.70;;;;;;;;;;5060258;28;20424;-79
2021/07/03 12:34:38;;;;;;;25.10;6.30;;;29.80;99.90;;;;;;5055088;28;20409;-79
2021/07/03 12:37:12;;;;;;;4.30;3.73;;;29.80;99.90;;;;;;5054610;28;20925;-79
2021/07/03 12:39:40;;;;;;;10.33;4.20;;;29.80;99.90;;;;;;5054742;28;20526;-79
2021/07/03 12:42:25;;;;;;;8.83;4.60;;;;;;;;;;5055783;28;20453;-79
2021/07/03 12:44:53;;;;;;;32.03;6.43;;;;;;;;;;5074900;28;20400;-79
2021/07/03 12:47:21;;;;;;;9.37;4.97;;;30.00;99.90;;;;;;5074670;28;20397;-78
2021/07/03 12:49:55;;;;;;;6.57;4.07;;;30.30;99.90;;;;;;5074789;28;20412;-79
2021/07/03 12:53:02;;;;;;;19.00;5.73;;;30.60;99.90;;;;;;5074443;28;20420;-79
2021/07/03 12:55:39;;;;;;;14.73;4.90;;;30.60;99.90;;;;;;5050161;28;20544;-78
2021/07/03 12:58:28;;;;;;;4.83;3.97;;;30.60;99.90;;;;;;5051900;28;20992;-78
2021/07/03 13:01:06;;;;;;;5.40;3.80;;;30.50;99.90;;;;;;5052567;28;20410;-77
2021/07/03 13:03:32;;;;;;;10.00;4.57;;;;;;;;;;5052449;28;20409;-76
2021/07/03 13:06:04;;;;;;;6.93;3.77;;;30.40;99.90;;;;;;5051856;28;20429;-76
2021/07/03 13:08:36;;;;;;;6.07;4.20;;;30.40;99.90;;;;;;5041358;28;20430;-77
2021/07/03 13:11:06;;;;;;;15.20;5.43;;;;;;;;;;5031949;28;20969;-80
2021/07/03 13:13:35;;;;;;;5.70;4.13;;;;;;;;;;5031663;28;20407;-81
2021/07/03 13:16:22;;;;;;;6.90;3.90;;;30.40;99.90;;;;;;5031783;28;20773;-81
2021/07/03 13:19:22;;;;;;;5.10;4.60;;;30.70;99.90;;;;;;5031827;28;20598;-83
2021/07/03 13:21:48;;;;;;;15.50;4.83;;;;;;;;;;5032585;28;20412;-83
2021/07/03 13:24:23;;;;;;;5.23;3.90;;;;;;;;;;5032167;28;20407;-83
2021/07/03 13:26:53;;;;;;;4.20;3.70;;;;;;;;;;5032103;28;20391;-83
2021/07/03 13:29:23;;;;;;;4.40;4.00;;;;;;;;;;5031475;28;20534;-83
2021/07/03 13:31:53;;;;;;;5.50;3.70;;;;;;;;;;5064706;28;20440;-83
2021/07/03 13:34:23;;;;;;;5.07;4.30;;;;;;;;;;5073611;28;20394;-83
2021/07/03 13:36:53;;;;;;;7.50;4.00;;;;;;;;;;5068010;28;20793;-83
2021/07/03 13:39:23;;;;;;;6.70;4.33;;;;;;;;;;5053463;28;20450;-81
2021/07/03 13:41:53;;;;;;;29.77;6.43;;;;;;;;;;5063642;28;20421;-79
2021/07/03 13:44:23;;;;;;;19.30;5.20;;;;;;;;;;5073312;28;20760;-79
2021/07/03 13:46:53;;;;;;;22.03;5.57;;;;;;;;;;5073731;28;20397;-78
2021/07/03 13:49:23;;;;;;;3.90;3.47;;;;;;;;;;5060129;28;20422;-78
2021/07/03 13:52:22;;;;;;;22.27;5.23;;;31.60;99.90;;;;;;5062679;28;20422;-78
2021/07/03 13:54:48;;;;;;;15.43;4.93;;;;;;;;;;5073338;28;20429;-78
2021/07/03 13:57:23;;;;;;;4.67;3.90;;;31.70;99.90;;;;;;5073665;28;20409;-82
2021/07/03 13:59:53;;;;;;;7.60;3.90;;;;;;;;;;5073357;28;20445;-81
2021/07/03 14:02:23;;;;;;;18.13;5.10;;;;;;;;;;5072671;28;20771;-83
2021/07/03 14:04:53;;;;;;;17.93;5.30;;;;;;;;;;5073039;28;20394;-80
2021/07/03 14:07:23;;;;;;;10.17;4.33;;;;;;;;;;5073358;28;20396;-80
2021/07/03 14:09:53;;;;;;;8.70;4.47;;;;;;;;;;5073179;28;20409;-80
2021/07/03 14:12:23;;;;;;;16.33;5.47;;;;;;;;;;5060018;28;20500;-80
2021/07/03 14:14:53;;;;;;;30.13;5.70;;;;;;;;;;5053182;28;20477;-80
2021/07/03 14:20:41;;;;;;;4.63;3.90;;;;;;;;;;5073077;28;20867;-82
2021/07/03 14:23:46;;;;;;;21.27;5.57;;;31.70;99.90;;;;;;5053563;28;20407;-81
2021/07/03 14:26:34;;;;;;;10.30;4.97;;;31.60;99.90;;;;;;5052717;28;20880;-83
2021/07/03 14:29:17;;;;;;;19.13;5.80;;;31.70;99.90;;;;;;5053071;28;20395;-78
2021/07/03 14:31:53;;;;;;;31.93;6.60;;;;;;;;;;5052743;28;20595;-78
2021/07/03 14:34:29;;;;;;;9.33;4.90;;;;;;;;;;5053129;28;20390;-78
2021/07/03 14:37:11;;;;;;;9.67;5.03;;;;;;;;;;5053250;28;20414;-78
2021/07/03 14:39:42;;;;;;;11.53;5.87;;;;;;;;;;5053240;28;20449;-77
2021/07/03 14:42:09;;;;;;;4.53;3.97;;;;;;;;;;5067274;28;20433;-82
2021/07/03 14:44:35;;;;;;;7.17;4.20;;;;;;;;;;5077257;28;20386;-82
2021/07/03 14:50:36;;;;;;;31.47;6.77;;;;;;;;;;5064012;28;20954;-80
2021/07/03 14:53:05;;;;;;;16.33;6.40;;;;;;;;;;5071704;28;20512;-81
2021/07/03 14:55:47;;;;;;;8.13;3.97;;;;;;;;;;5068882;28;20421;-83
2021/07/03 15:04:57;;;;;;;8.63;4.73;;;;;;;;;;5056226;28;20420;-83
2021/07/03 15:07:26;;;;;;;5.83;4.40;;;;;;;;;;5056394;28;20406;-85
2021/07/03 15:10:10;;;;;;;29.77;6.37;;;;;;;;;;5056508;28;20395;-85
2021/07/03 15:15:58;;;;;;;9.13;4.90;;;;;;;;;;5076179;28;20450;-83
2021/07/03 15:24:50;;;;;;;25.83;6.67;;;;;;;;;;5072546;28;20401;-83
2021/07/03 15:27:16;;;;;;;17.57;5.03;;;;;;;;;;5056581;28;20386;-76
2021/07/03 15:29:42;;;;;;;11.30;4.20;;;;;;;;;;5056024;28;20757;-78
2021/07/03 15:32:08;;;;;;;9.67;4.20;;;;;;;;;;5057125;28;20432;-78
2021/07/03 15:34:34;;;;;;;38.50;8.50;;;;;;;;;;5065565;28;20880;-76
2021/07/03 15:37:01;;;;;;;30.53;5.93;;;;;;;;;;5056125;28;20402;-76
2021/07/03 15:39:26;;;;;;;18.33;5.67;;;44.80;99.90;;;;;;5055913;28;20909;-77
2021/07/03 15:41:52;;;;;;;38.17;6.67;;;;;;;;;;5055583;28;20410;-77
2021/07/03 15:44:19;;;;;;;7.80;4.30;;;;;;;;;;5056090;28;20167;-75
2021/07/03 15:46:45;;;;;;;27.23;6.57;;;;;;;;;;5055628;28;20919;-75